createdAt,value
2017-11-11T21:15:57.303Z,1006.06
2017-11-11T21:16:57.253Z,1006.04
2017-11-11T21:18:50.578Z,1006.07
2017-11-11T21:19:50.530Z,1006.05
2017-11-11T21:21:43.913Z,1006.06
2017-11-11T21:22:43.852Z,1006.07
2017-11-11T21:24:38.168Z,1006.10
2017-11-11T21:25:38.130Z,1006.06
2017-11-11T21:28:14.676Z,1006.06
2017-11-11T21:29:14.463Z,1006.08
2017-11-11T21:31:08.247Z,1006.07
2017-11-11T21:32:07.751Z,1006.03
2017-11-11T21:34:02.340Z,1006.05
2017-11-11T21:35:46.114Z,1006.06
2017-11-11T21:37:31.162Z,1006.10
2017-11-11T21:38:31.053Z,1006.09
2017-11-11T21:40:24.031Z,1006.14
2017-11-11T21:41:23.906Z,1006.16
2017-11-11T21:43:18.263Z,1006.15
2017-11-11T21:44:18.204Z,1006.19
2017-11-11T21:46:11.258Z,1006.20
2017-11-11T21:47:11.154Z,1006.26
2017-11-11T22:33:37.532Z,1006.30
2017-11-11T22:34:37.477Z,1006.30
2017-11-11T22:36:30.500Z,1006.29
2017-11-11T22:37:30.384Z,1006.23
2017-11-11T22:39:24.838Z,1006.19
2017-11-11T22:40:24.674Z,1006.15
2017-11-11T22:42:18.104Z,1006.15
2017-11-11T22:43:17.937Z,1006.09
2017-11-11T22:45:11.296Z,1006.08
2017-11-11T22:46:11.221Z,1006.07
2017-11-11T22:48:04.249Z,1006.12
2017-11-11T22:49:04.140Z,1006.10
2017-11-11T22:50:57.531Z,1006.06
2017-11-11T22:51:57.453Z,1006.07
2017-11-11T22:53:50.867Z,1006.06
2017-11-11T22:54:51.164Z,1006.06
2017-11-11T22:56:43.771Z,1006.06
2017-11-11T22:57:43.630Z,1005.98
2017-11-11T22:59:36.996Z,1005.94
2017-11-11T23:00:36.911Z,1005.93
2017-11-11T23:02:29.992Z,1005.95
2017-11-11T23:03:29.832Z,1005.90
2017-11-11T23:05:24.216Z,1005.95
2017-11-11T23:06:24.152Z,1005.96
2017-11-11T23:08:17.451Z,1005.97
2017-11-11T23:09:17.387Z,1005.90
2017-11-11T23:11:14.996Z,1005.85
2017-11-11T23:12:14.900Z,1005.88
2017-11-11T23:17:01.533Z,1005.81
2017-11-11T23:18:01.456Z,1005.76
2017-11-11T23:20:54.348Z,1005.76
2017-11-11T23:22:51.407Z,1005.75
2017-11-11T23:23:47.215Z,1005.73
2017-11-11T23:25:41.793Z,1005.71
2017-11-11T23:26:40.461Z,1005.74
2017-11-11T23:28:33.852Z,1005.79
2017-11-11T23:29:33.755Z,1005.76
2017-11-11T23:31:27.336Z,1005.77
2017-11-11T23:32:27.264Z,1005.75
